sensor_id;sensor_type;location;lat;lon;timestamp;pressure;altitude;pressure_sealevel;temperature;humidity
7834;BME280;3962;42.696;23.354;2023-06-10T00:00:10;94815.22;;;17.88;96.43
7834;BME280;3962;42.696;23.354;2023-06-10T00:02:40;94820.19;;;17.84;96.45
7834;BME280;3962;42.696;23.354;2023-06-10T00:05:08;94818.91;;;17.74;96.88
7834;BME280;3962;42.696;23.354;2023-06-10T00:07:35;94817.25;;;17.73;97.38
7834;BME280;3962;42.696;23.354;2023-06-10T00:10:04;94813.94;;;17.71;97.67
7834;BME280;3962;42.696;23.354;2023-06-10T00:12:32;94815.13;;;17.62;97.91
7834;BME280;3962;42.696;23.354;2023-06-10T00:15:04;94808.06;;;17.61;98.20
7834;BME280;3962;42.696;23.354;2023-06-10T00:17:31;94808.69;;;17.56;98.34
7834;BME280;3962;42.696;23.354;2023-06-10T00:19:58;94805.38;;;17.54;98.33
7834;BME280;3962;42.696;23.354;2023-06-10T00:22:24;94809.91;;;17.54;98.32
7834;BME280;3962;42.696;23.354;2023-06-10T00:24:54;94809.34;;;17.58;98.62
7834;BME280;3962;42.696;23.354;2023-06-10T00:27:21;94807.03;;;17.62;98.66
7834;BME280;3962;42.696;23.354;2023-06-10T00:29:50;94803.97;;;17.58;99.04
7834;BME280;3962;42.696;23.354;2023-06-10T00:32:17;94810.56;;;17.56;99.08
7834;BME280;3962;42.696;23.354;2023-06-10T00:34:44;94811.38;;;17.56;99.01
7834;BME280;3962;42.696;23.354;2023-06-10T00:37:11;94812.47;;;17.68;99.24
7834;BME280;3962;42.696;23.354;2023-06-10T00:39:38;94813.53;;;17.74;98.64
7834;BME280;3962;42.696;23.354;2023-06-10T00:42:06;94812.03;;;17.58;98.79
7834;BME280;3962;42.696;23.354;2023-06-10T00:44:32;94810.38;;;17.64;98.65
7834;BME280;3962;42.696;23.354;2023-06-10T00:47:01;94809.38;;;17.71;98.92
7834;BME280;3962;42.696;23.354;2023-06-10T00:49:28;94817.69;;;17.83;98.48
7834;BME280;3962;42.696;23.354;2023-06-10T00:51:54;94810.06;;;17.93;97.96
7834;BME280;3962;42.696;23.354;2023-06-10T00:54:21;94813.56;;;17.87;97.31
7834;BME280;3962;42.696;23.354;2023-06-10T00:56:49;94813.59;;;17.93;97.06
7834;BME280;3962;42.696;23.354;2023-06-10T00:59:16;94814.44;;;17.94;96.58
7834;BME280;3962;42.696;23.354;2023-06-10T01:01:46;94815.91;;;18.03;96.22
7834;BME280;3962;42.696;23.354;2023-06-10T01:04:14;94819.63;;;18.02;96.03
7834;BME280;3962;42.696;23.354;2023-06-10T01:06:50;94828.75;;;18.07;95.12
7834;BME280;3962;42.696;23.354;2023-06-10T01:09:27;94821.91;;;18.11;94.70
7834;BME280;3962;42.696;23.354;2023-06-10T01:12:02;94817.97;;;18.07;94.90
7834;BME280;3962;42.696;23.354;2023-06-10T01:14:34;94825.22;;;18.13;94.86
7834;BME280;3962;42.696;23.354;2023-06-10T01:17:02;94826.06;;;18.20;95.09
7834;BME280;3962;42.696;23.354;2023-06-10T01:19:32;94825.44;;;18.25;94.78
7834;BME280;3962;42.696;23.354;2023-06-10T01:22:00;94829.41;;;18.22;94.26
7834;BME280;3962;42.696;23.354;2023-06-10T01:24:27;94823.16;;;18.15;94.85
7834;BME280;3962;42.696;23.354;2023-06-10T01:27:00;94820.84;;;18.06;95.48
7834;BME280;3962;42.696;23.354;2023-06-10T01:29:32;94817.69;;;17.89;96.41
7834;BME280;3962;42.696;23.354;2023-06-10T01:32:04;94814.56;;;17.79;97.77
7834;BME280;3962;42.696;23.354;2023-06-10T01:34:33;94814.19;;;17.82;97.97
7834;BME280;3962;42.696;23.354;2023-06-10T01:37:03;94815.84;;;17.83;97.96
7834;BME280;3962;42.696;23.354;2023-06-10T01:39:32;94823.91;;;17.90;97.89
7834;BME280;3962;42.696;23.354;2023-06-10T01:41:59;94819.16;;;17.92;98.25
7834;BME280;3962;42.696;23.354;2023-06-10T01:44:27;94814.19;;;17.89;98.57
7834;BME280;3962;42.696;23.354;2023-06-10T01:46:54;94810.28;;;17.98;98.58
7834;BME280;3962;42.696;23.354;2023-06-10T01:49:21;94812.13;;;17.97;98.11
7834;BME280;3962;42.696;23.354;2023-06-10T01:51:49;94807.41;;;17.99;98.09
7834;BME280;3962;42.696;23.354;2023-06-10T01:54:17;94810.50;;;18.03;97.99
7834;BME280;3962;42.696;23.354;2023-06-10T01:56:44;94804.09;;;18.04;97.98
7834;BME280;3962;42.696;23.354;2023-06-10T01:59:11;94803.28;;;18.10;97.91
7834;BME280;3962;42.696;23.354;2023-06-10T02:01:38;94801.41;;;18.10;97.62
7834;BME280;3962;42.696;23.354;2023-06-10T02:04:04;94792.91;;;18.13;97.37
7834;BME280;3962;42.696;23.354;2023-06-10T02:06:31;94795.00;;;18.18;96.85
7834;BME280;3962;42.696;23.354;2023-06-10T02:08:58;94798.31;;;18.26;96.53
7834;BME280;3962;42.696;23.354;2023-06-10T02:11:26;94798.16;;;18.34;96.57
7834;BME280;3962;42.696;23.354;2023-06-10T02:13:53;94797.53;;;18.39;96.07
7834;BME280;3962;42.696;23.354;2023-06-10T02:16:20;94806.66;;;18.31;95.61
7834;BME280;3962;42.696;23.354;2023-06-10T02:18:47;94799.63;;;18.37;95.78
7834;BME280;3962;42.696;23.354;2023-06-10T02:21:14;94796.28;;;18.41;95.59
7834;BME280;3962;42.696;23.354;2023-06-10T02:23:41;94791.31;;;18.45;95.52
7834;BME280;3962;42.696;23.354;2023-06-10T02:26:07;94785.50;;;18.48;95.59
7834;BME280;3962;42.696;23.354;2023-06-10T02:28:35;94788.22;;;18.48;95.54
7834;BME280;3962;42.696;23.354;2023-06-10T02:31:02;94772.47;;;18.45;95.22
7834;BME280;3962;42.696;23.354;2023-06-10T02:33:29;94778.91;;;18.44;95.19
7834;BME280;3962;42.696;23.354;2023-06-10T02:35:57;94771.22;;;18.41;95.42
7834;BME280;3962;42.696;23.354;2023-06-10T02:38:23;94774.94;;;18.40;95.73
7834;BME280;3962;42.696;23.354;2023-06-10T02:40:50;94773.28;;;18.39;95.76
7834;BME280;3962;42.696;23.354;2023-06-10T02:43:17;94782.22;;;18.39;95.74
7834;BME280;3962;42.696;23.354;2023-06-10T02:45:45;94767.47;;;18.29;95.65
7834;BME280;3962;42.696;23.354;2023-06-10T02:48:12;94763.75;;;18.36;95.94
7834;BME280;3962;42.696;23.354;2023-06-10T02:50:39;94759.00;;;18.38;95.71
7834;BME280;3962;42.696;23.354;2023-06-10T02:53:06;94755.91;;;18.35;95.89
7834;BME280;3962;42.696;23.354;2023-06-10T02:55:33;94760.25;;;18.42;96.17
7834;BME280;3962;42.696;23.354;2023-06-10T02:58:00;94766.88;;;18.46;95.89
7834;BME280;3962;42.696;23.354;2023-06-10T03:00:28;94763.34;;;18.52;94.99
7834;BME280;3962;42.696;23.354;2023-06-10T03:02:56;94762.34;;;18.53;95.23
7834;BME280;3962;42.696;23.354;2023-06-10T03:05:23;94767.50;;;18.55;95.30
7834;BME280;3962;42.696;23.354;2023-06-10T03:07:50;94766.69;;;18.54;95.35
7834;BME280;3962;42.696;23.354;2023-06-10T03:10:17;94771.22;;;18.54;95.23
7834;BME280;3962;42.696;23.354;2023-06-10T03:12:44;94767.50;;;18.48;95.45
7834;BME280;3962;42.696;23.354;2023-06-10T03:15:10;94774.94;;;18.40;95.63
7834;BME280;3962;42.696;23.354;2023-06-10T03:17:37;94783.22;;;18.32;95.98
7834;BME280;3962;42.696;23.354;2023-06-10T03:20:07;94776.34;;;18.23;96.68
7834;BME280;3962;42.696;23.354;2023-06-10T03:22:35;94784.00;;;18.19;97.21
7834;BME280;3962;42.696;23.354;2023-06-10T03:25:04;94782.97;;;18.14;98.90
7834;BME280;3962;42.696;23.354;2023-06-10T03:27:31;94792.47;;;18.03;100.00
7834;BME280;3962;42.696;23.354;2023-06-10T03:29:58;94789.59;;;17.98;100.00
7834;BME280;3962;42.696;23.354;2023-06-10T03:32:25;94792.06;;;17.93;100.00
7834;BME280;3962;42.696;23.354;2023-06-10T03:34:52;94801.28;;;17.71;100.00
7834;BME280;3962;42.696;23.354;2023-06-10T03:37:24;94808.06;;;17.54;100.00
7834;BME280;3962;42.696;23.354;2023-06-10T03:39:51;94807.31;;;17.33;100.00
7834;BME280;3962;42.696;23.354;2023-06-10T03:42:18;94804.56;;;17.20;100.00
7834;BME280;3962;42.696;23.354;2023-06-10T03:44:45;94795.41;;;17.08;100.00
7834;BME280;3962;42.696;23.354;2023-06-10T03:47:12;94801.63;;;17.15;100.00
7834;BME280;3962;42.696;23.354;2023-06-10T03:49:39;94800.81;;;17.14;100.00
7834;BME280;3962;42.696;23.354;2023-06-10T03:52:06;94798.19;;;17.27;100.00
7834;BME280;3962;42.696;23.354;2023-06-10T03:54:35;94793.03;;;17.32;100.00
7834;BME280;3962;42.696;23.354;2023-06-10T03:57:01;94793.72;;;17.41;100.00
7834;BME280;3962;42.696;23.354;2023-06-10T03:59:29;94794.34;;;17.43;100.00
7834;BME280;3962;42.696;23.354;2023-06-10T04:01:55;94797.25;;;17.41;99.90
7834;BME280;3962;42.696;23.354;2023-06-10T04:04:23;94799.53;;;17.44;99.69
7834;BME280;3962;42.696;23.354;2023-06-10T04:06:50;94780.63;;;17.31;99.34
7834;BME280;3962;42.696;23.354;2023-06-10T04:09:17;94794.50;;;17.35;99.70
7834;BME280;3962;42.696;23.354;2023-06-10T04:11:45;94796.63;;;17.46;99.96
7834;BME280;3962;42.696;23.354;2023-06-10T04:14:13;94803.28;;;17.50;99.46
7834;BME280;3962;42.696;23.354;2023-06-10T04:16:40;94807.00;;;17.49;99.72
7834;BME280;3962;42.696;23.354;2023-06-10T04:19:07;94803.47;;;17.48;99.55
7834;BME280;3962;42.696;23.354;2023-06-10T04:21:34;94798.69;;;17.44;99.98
7834;BME280;3962;42.696;23.354;2023-06-10T04:24:02;94811.97;;;17.45;99.25
7834;BME280;3962;42.696;23.354;2023-06-10T04:26:29;94808.84;;;17.48;99.28
7834;BME280;3962;42.696;23.354;2023-06-10T04:28:57;94810.72;;;17.48;98.83
7834;BME280;3962;42.696;23.354;2023-06-10T04:31:24;94805.53;;;17.46;98.47
7834;BME280;3962;42.696;23.354;2023-06-10T04:33:50;94812.59;;;17.47;98.13
7834;BME280;3962;42.696;23.354;2023-06-10T04:36:17;94808.03;;;17.48;98.00
7834;BME280;3962;42.696;23.354;2023-06-10T04:38:44;94804.16;;;17.57;97.52
7834;BME280;3962;42.696;23.354;2023-06-10T04:41:11;94800.44;;;17.64;97.21
7834;BME280;3962;42.696;23.354;2023-06-10T04:43:38;94802.56;;;17.75;96.67
7834;BME280;3962;42.696;23.354;2023-06-10T04:46:06;94804.03;;;17.84;96.98
7834;BME280;3962;42.696;23.354;2023-06-10T04:48:33;94799.94;;;18.01;97.10
7834;BME280;3962;42.696;23.354;2023-06-10T04:51:02;94807.81;;;18.09;96.53
7834;BME280;3962;42.696;23.354;2023-06-10T04:53:30;94798.50;;;18.18;96.70
7834;BME280;3962;42.696;23.354;2023-06-10T04:55:57;94804.94;;;18.24;97.27
7834;BME280;3962;42.696;23.354;2023-06-10T04:58:24;94804.75;;;18.19;97.02
7834;BME280;3962;42.696;23.354;2023-06-10T05:00:51;94801.81;;;18.20;96.94
7834;BME280;3962;42.696;23.354;2023-06-10T05:03:19;94803.66;;;18.13;96.28
7834;BME280;3962;42.696;23.354;2023-06-10T05:05:46;94803.28;;;18.16;96.68
7834;BME280;3962;42.696;23.354;2023-06-10T05:08:13;94804.75;;;18.25;96.36
7834;BME280;3962;42.696;23.354;2023-06-10T05:10:40;94801.88;;;18.33;95.99
7834;BME280;3962;42.696;23.354;2023-06-10T05:13:06;94806.44;;;18.46;95.49
7834;BME280;3962;42.696;23.354;2023-06-10T05:15:33;94799.22;;;18.53;94.89
7834;BME280;3962;42.696;23.354;2023-06-10T05:18:00;94796.50;;;18.59;95.05
7834;BME280;3962;42.696;23.354;2023-06-10T05:20:30;94796.09;;;18.62;94.75
7834;BME280;3962;42.696;23.354;2023-06-10T05:22:57;94795.91;;;18.70;94.35
7834;BME280;3962;42.696;23.354;2023-06-10T05:25:26;94800.25;;;18.71;93.92
7834;BME280;3962;42.696;23.354;2023-06-10T05:27:53;94796.28;;;18.80;93.89
7834;BME280;3962;42.696;23.354;2023-06-10T05:30:20;94799.00;;;18.80;93.47
7834;BME280;3962;42.696;23.354;2023-06-10T05:32:48;94797.94;;;18.87;93.16
7834;BME280;3962;42.696;23.354;2023-06-10T05:35:16;94813.28;;;19.00;93.18
7834;BME280;3962;42.696;23.354;2023-06-10T05:37:44;94802.91;;;19.10;92.54
7834;BME280;3962;42.696;23.354;2023-06-10T05:40:11;94809.34;;;19.09;92.68
7834;BME280;3962;42.696;23.354;2023-06-10T05:42:38;94797.75;;;18.83;93.84
7834;BME280;3962;42.696;23.354;2023-06-10T05:45:06;94799.81;;;18.93;93.68
7834;BME280;3962;42.696;23.354;2023-06-10T05:47:33;94811.59;;;19.12;93.28
7834;BME280;3962;42.696;23.354;2023-06-10T05:50:00;94810.94;;;19.36;92.26
7834;BME280;3962;42.696;23.354;2023-06-10T05:52:27;94808.63;;;19.46;91.16
7834;BME280;3962;42.696;23.354;2023-06-10T05:54:55;94808.63;;;19.52;90.58
7834;BME280;3962;42.696;23.354;2023-06-10T05:57:22;94818.91;;;19.75;89.92
7834;BME280;3962;42.696;23.354;2023-06-10T05:59:49;94819.03;;;19.93;88.88
7834;BME280;3962;42.696;23.354;2023-06-10T06:02:16;94818.22;;;19.86;87.76
7834;BME280;3962;42.696;23.354;2023-06-10T06:04:43;94825.72;;;19.90;88.23
7834;BME280;3962;42.696;23.354;2023-06-10T06:07:10;94820.66;;;20.07;88.19
7834;BME280;3962;42.696;23.354;2023-06-10T06:09:37;94817.84;;;20.26;87.51
7834;BME280;3962;42.696;23.354;2023-06-10T06:12:06;94822.22;;;20.27;87.10
7834;BME280;3962;42.696;23.354;2023-06-10T06:14:37;94812.84;;;20.30;86.77
7834;BME280;3962;42.696;23.354;2023-06-10T06:17:04;94816.41;;;20.24;86.71
7834;BME280;3962;42.696;23.354;2023-06-10T06:19:31;94818.44;;;20.35;86.72
7834;BME280;3962;42.696;23.354;2023-06-10T06:21:58;94814.41;;;20.44;86.52
7834;BME280;3962;42.696;23.354;2023-06-10T06:24:25;94810.84;;;20.50;86.13
7834;BME280;3962;42.696;23.354;2023-06-10T06:26:52;94826.22;;;20.49;85.51
7834;BME280;3962;42.696;23.354;2023-06-10T06:29:20;94823.31;;;20.51;85.77
7834;BME280;3962;42.696;23.354;2023-06-10T06:31:47;94822.88;;;20.54;85.76
7834;BME280;3962;42.696;23.354;2023-06-10T06:34:13;94820.03;;;20.42;86.11
7834;BME280;3962;42.696;23.354;2023-06-10T06:36:41;94822.03;;;20.22;87.77
7834;BME280;3962;42.696;23.354;2023-06-10T06:39:08;94816.91;;;20.08;88.70
7834;BME280;3962;42.696;23.354;2023-06-10T06:41:34;94823.59;;;20.36;88.03
7834;BME280;3962;42.696;23.354;2023-06-10T06:44:01;94813.81;;;20.42;86.66
7834;BME280;3962;42.696;23.354;2023-06-10T06:46:29;94811.00;;;20.55;86.10
7834;BME280;3962;42.696;23.354;2023-06-10T06:48:56;94805.19;;;20.58;84.56
7834;BME280;3962;42.696;23.354;2023-06-10T06:51:23;94803.94;;;20.54;83.73
7834;BME280;3962;42.696;23.354;2023-06-10T06:53:50;94810.41;;;20.53;82.82
7834;BME280;3962;42.696;23.354;2023-06-10T06:56:16;94809.69;;;20.39;81.94
7834;BME280;3962;42.696;23.354;2023-06-10T06:58:43;94806.31;;;20.44;81.74
7834;BME280;3962;42.696;23.354;2023-06-10T07:01:10;94803.47;;;20.63;81.99
7834;BME280;3962;42.696;23.354;2023-06-10T07:03:38;94806.56;;;20.67;81.17
7834;BME280;3962;42.696;23.354;2023-06-10T07:06:06;94807.94;;;20.76;80.93
7834;BME280;3962;42.696;23.354;2023-06-10T07:08:32;94801.88;;;20.80;79.81
7834;BME280;3962;42.696;23.354;2023-06-10T07:10:59;94804.19;;;20.77;77.96
7834;BME280;3962;42.696;23.354;2023-06-10T07:13:26;94806.94;;;21.19;77.12
7834;BME280;3962;42.696;23.354;2023-06-10T07:15:53;94807.19;;;21.36;75.10
7834;BME280;3962;42.696;23.354;2023-06-10T07:18:20;94804.84;;;21.39;74.75
7834;BME280;3962;42.696;23.354;2023-06-10T07:20:48;94794.19;;;21.44;73.86
7834;BME280;3962;42.696;23.354;2023-06-10T07:23:15;94800.38;;;21.51;73.48
7834;BME280;3962;42.696;23.354;2023-06-10T07:25:41;94797.28;;;22.02;71.75
7834;BME280;3962;42.696;23.354;2023-06-10T07:28:08;94800.38;;;22.76;67.45
7834;BME280;3962;42.696;23.354;2023-06-10T07:30:35;94795.59;;;22.48;65.93
7834;BME280;3962;42.696;23.354;2023-06-10T07:33:02;94799.34;;;22.18;62.81
7834;BME280;3962;42.696;23.354;2023-06-10T07:35:29;94797.38;;;23.06;61.55
7834;BME280;3962;42.696;23.354;2023-06-10T07:37:57;94800.78;;;24.61;55.13
7834;BME280;3962;42.696;23.354;2023-06-10T07:40:24;94800.81;;;24.50;56.99
7834;BME280;3962;42.696;23.354;2023-06-10T07:42:51;94807.38;;;23.75;58.69
7834;BME280;3962;42.696;23.354;2023-06-10T07:45:18;94804.59;;;24.49;56.55
7834;BME280;3962;42.696;23.354;2023-06-10T07:47:45;94798.91;;;24.50;56.20
7834;BME280;3962;42.696;23.354;2023-06-10T07:50:12;94796.09;;;24.45;56.48
7834;BME280;3962;42.696;23.354;2023-06-10T07:52:39;94791.38;;;24.13;55.77
7834;BME280;3962;42.696;23.354;2023-06-10T07:55:07;94797.19;;;24.89;56.45
7834;BME280;3962;42.696;23.354;2023-06-10T07:57:34;94795.97;;;25.62;53.59
7834;BME280;3962;42.696;23.354;2023-06-10T08:00:02;94801.28;;;26.33;50.64
7834;BME280;3962;42.696;23.354;2023-06-10T08:02:29;94801.81;;;27.10;49.41
7834;BME280;3962;42.696;23.354;2023-06-10T08:04:56;94796.53;;;27.61;47.79
7834;BME280;3962;42.696;23.354;2023-06-10T08:07:23;94795.81;;;27.39;47.85
7834;BME280;3962;42.696;23.354;2023-06-10T08:09:50;94794.91;;;27.29;48.35
7834;BME280;3962;42.696;23.354;2023-06-10T08:12:19;94803.06;;;26.97;47.83
7834;BME280;3962;42.696;23.354;2023-06-10T08:14:45;94797.63;;;27.65;46.94
7834;BME280;3962;42.696;23.354;2023-06-10T08:17:12;94790.34;;;27.75;45.06
7834;BME280;3962;42.696;23.354;2023-06-10T08:19:39;94786.44;;;27.66;45.38
7834;BME280;3962;42.696;23.354;2023-06-10T08:22:06;94788.53;;;27.91;45.10
7834;BME280;3962;42.696;23.354;2023-06-10T08:24:33;94785.22;;;28.35;45.26
7834;BME280;3962;42.696;23.354;2023-06-10T08:27:00;94779.06;;;28.13;44.30
7834;BME280;3962;42.696;23.354;2023-06-10T08:29:28;94778.47;;;27.65;45.05
7834;BME280;3962;42.696;23.354;2023-06-10T08:31:56;94778.44;;;27.19;45.77
7834;BME280;3962;42.696;23.354;2023-06-10T08:34:23;94775.78;;;27.02;46.78
7834;BME280;3962;42.696;23.354;2023-06-10T08:36:50;94766.00;;;27.33;46.30
7834;BME280;3962;42.696;23.354;2023-06-10T08:39:19;94768.34;;;27.60;43.45
7834;BME280;3962;42.696;23.354;2023-06-10T08:41:51;94763.66;;;27.51;45.00
7834;BME280;3962;42.696;23.354;2023-06-10T08:44:29;94764.81;;;27.60;45.64
7834;BME280;3962;42.696;23.354;2023-06-10T08:47:02;94767.56;;;27.24;46.26
7834;BME280;3962;42.696;23.354;2023-06-10T08:49:30;94762.31;;;27.17;47.12
7834;BME280;3962;42.696;23.354;2023-06-10T08:52:02;94762.69;;;27.31;46.35
7834;BME280;3962;42.696;23.354;2023-06-10T08:54:32;94757.84;;;27.42;46.21
7834;BME280;3962;42.696;23.354;2023-06-10T08:57:02;94761.25;;;28.06;45.14
7834;BME280;3962;42.696;23.354;2023-06-10T08:59:32;94750.72;;;28.39;44.24
7834;BME280;3962;42.696;23.354;2023-06-10T09:01:59;94748.03;;;28.44;43.65
7834;BME280;3962;42.696;23.354;2023-06-10T09:04:27;94745.44;;;28.18;43.91
7834;BME280;3962;42.696;23.354;2023-06-10T09:06:56;94749.03;;;28.28;42.83
7834;BME280;3962;42.696;23.354;2023-06-10T09:09:25;94745.25;;;28.39;43.09
7834;BME280;3962;42.696;23.354;2023-06-10T09:11:55;94749.19;;;28.02;43.20
7834;BME280;3962;42.696;23.354;2023-06-10T09:14:23;94747.66;;;27.74;44.43
7834;BME280;3962;42.696;23.354;2023-06-10T09:16:52;94736.13;;;27.62;44.12
7834;BME280;3962;42.696;23.354;2023-06-10T09:19:23;94743.16;;;27.48;45.36
7834;BME280;3962;42.696;23.354;2023-06-10T09:21:50;94731.16;;;27.54;44.92
7834;BME280;3962;42.696;23.354;2023-06-10T09:24:16;94729.22;;;27.14;46.29
7834;BME280;3962;42.696;23.354;2023-06-10T09:26:43;94736.97;;;27.73;45.41
7834;BME280;3962;42.696;23.354;2023-06-10T09:29:11;94738.19;;;27.82;44.09
7834;BME280;3962;42.696;23.354;2023-06-10T09:31:39;94736.94;;;27.63;44.44
7834;BME280;3962;42.696;23.354;2023-06-10T09:34:09;94741.34;;;27.69;45.02
7834;BME280;3962;42.696;23.354;2023-06-10T09:36:37;94741.94;;;27.35;45.70
7834;BME280;3962;42.696;23.354;2023-06-10T09:39:05;94732.59;;;27.26;45.00
7834;BME280;3962;42.696;23.354;2023-06-10T09:41:40;94731.13;;;27.13;45.46
7834;BME280;3962;42.696;23.354;2023-06-10T09:44:11;94726.31;;;27.25;45.33
7834;BME280;3962;42.696;23.354;2023-06-10T09:46:39;94716.81;;;27.33;45.01
7834;BME280;3962;42.696;23.354;2023-06-10T09:49:07;94718.41;;;27.29;45.66
7834;BME280;3962;42.696;23.354;2023-06-10T09:51:34;94721.19;;;27.34;44.56
7834;BME280;3962;42.696;23.354;2023-06-10T09:54:03;94711.59;;;27.31;44.54
7834;BME280;3962;42.696;23.354;2023-06-10T09:56:34;94716.56;;;27.39;45.16
7834;BME280;3962;42.696;23.354;2023-06-10T09:59:02;94706.25;;;26.78;47.83
7834;BME280;3962;42.696;23.354;2023-06-10T10:01:30;94705.38;;;26.46;48.28
7834;BME280;3962;42.696;23.354;2023-06-10T10:03:59;94705.59;;;26.40;48.91
7834;BME280;3962;42.696;23.354;2023-06-10T10:06:27;94698.53;;;27.02;47.96
7834;BME280;3962;42.696;23.354;2023-06-10T10:08:54;94698.13;;;27.61;45.57
7834;BME280;3962;42.696;23.354;2023-06-10T10:11:22;94698.28;;;27.40;45.25
7834;BME280;3962;42.696;23.354;2023-06-10T10:13:52;94696.13;;;27.47;44.81
7834;BME280;3962;42.696;23.354;2023-06-10T10:16:20;94687.72;;;27.63;43.44
7834;BME280;3962;42.696;23.354;2023-06-10T10:18:52;94691.53;;;27.57;44.46
7834;BME280;3962;42.696;23.354;2023-06-10T10:21:22;94686.16;;;27.26;46.02
7834;BME280;3962;42.696;23.354;2023-06-10T10:23:53;94691.97;;;27.39;45.92
7834;BME280;3962;42.696;23.354;2023-06-10T10:26:23;94686.34;;;27.60;45.47
7834;BME280;3962;42.696;23.354;2023-06-10T10:29:00;94684.88;;;26.65;46.36
7834;BME280;3962;42.696;23.354;2023-06-10T10:31:32;94683.34;;;26.00;47.78
7834;BME280;3962;42.696;23.354;2023-06-10T10:34:02;94686.66;;;25.59;48.71
7834;BME280;3962;42.696;23.354;2023-06-10T10:36:31;94671.25;;;25.10;48.91
7834;BME280;3962;42.696;23.354;2023-06-10T10:38:59;94672.06;;;25.10;49.03
7834;BME280;3962;42.696;23.354;2023-06-10T10:41:30;94675.88;;;25.90;46.66
7834;BME280;3962;42.696;23.354;2023-06-10T10:43:58;94675.28;;;26.63;45.11
7834;BME280;3962;42.696;23.354;2023-06-10T10:46:25;94670.91;;;26.62;45.94
7834;BME280;3962;42.696;23.354;2023-06-10T10:48:54;94664.63;;;26.98;45.15
7834;BME280;3962;42.696;23.354;2023-06-10T10:51:22;94664.47;;;27.55;44.45
7834;BME280;3962;42.696;23.354;2023-06-10T10:54:13;94665.41;;;27.30;45.54
7834;BME280;3962;42.696;23.354;2023-06-10T10:57:09;94659.13;;;26.56;45.93
7834;BME280;3962;42.696;23.354;2023-06-10T10:59:52;94666.88;;;26.43;47.03
7834;BME280;3962;42.696;23.354;2023-06-10T11:02:36;94647.16;;;26.62;46.94
7834;BME280;3962;42.696;23.354;2023-06-10T11:05:05;94655.19;;;26.47;47.97
7834;BME280;3962;42.696;23.354;2023-06-10T11:07:34;94654.78;;;26.92;47.03
7834;BME280;3962;42.696;23.354;2023-06-10T11:10:06;94647.25;;;27.09;46.87
7834;BME280;3962;42.696;23.354;2023-06-10T11:12:57;94637.91;;;27.05;46.12
7834;BME280;3962;42.696;23.354;2023-06-10T11:15:25;94635.53;;;26.45;46.98
7834;BME280;3962;42.696;23.354;2023-06-10T11:18:13;94630.88;;;26.14;47.58
7834;BME280;3962;42.696;23.354;2023-06-10T11:20:58;94625.09;;;26.37;46.77
7834;BME280;3962;42.696;23.354;2023-06-10T11:23:39;94629.94;;;26.30;47.29
7834;BME280;3962;42.696;23.354;2023-06-10T11:26:29;94622.06;;;25.81;48.17
7834;BME280;3962;42.696;23.354;2023-06-10T11:29:08;94623.25;;;25.68;48.15
7834;BME280;3962;42.696;23.354;2023-06-10T11:31:44;94619.56;;;25.31;47.90
7834;BME280;3962;42.696;23.354;2023-06-10T11:34:12;94609.34;;;25.43;48.01
7834;BME280;3962;42.696;23.354;2023-06-10T11:36:40;94619.97;;;25.88;47.09
7834;BME280;3962;42.696;23.354;2023-06-10T11:39:08;94615.72;;;26.55;45.97
7834;BME280;3962;42.696;23.354;2023-06-10T11:41:38;94615.00;;;26.69;40.96
7834;BME280;3962;42.696;23.354;2023-06-10T11:44:08;94606.38;;;26.82;42.05
7834;BME280;3962;42.696;23.354;2023-06-10T11:46:35;94608.25;;;26.77;43.58
7834;BME280;3962;42.696;23.354;2023-06-10T11:49:03;94605.81;;;26.44;40.46
7834;BME280;3962;42.696;23.354;2023-06-10T11:51:33;94603.06;;;26.44;40.50
7834;BME280;3962;42.696;23.354;2023-06-10T11:54:00;94593.50;;;26.41;41.01
7834;BME280;3962;42.696;23.354;2023-06-10T11:56:28;94596.53;;;26.45;40.68
7834;BME280;3962;42.696;23.354;2023-06-10T11:58:58;94605.44;;;27.03;40.15
7834;BME280;3962;42.696;23.354;2023-06-10T12:01:30;94594.09;;;27.21;39.60
7834;BME280;3962;42.696;23.354;2023-06-10T12:03:59;94593.94;;;27.48;39.34
7834;BME280;3962;42.696;23.354;2023-06-10T12:06:26;94593.19;;;27.72;38.18
7834;BME280;3962;42.696;23.354;2023-06-10T12:08:54;94590.16;;;27.53;37.12
7834;BME280;3962;42.696;23.354;2023-06-10T12:11:21;94596.16;;;27.60;37.16
7834;BME280;3962;42.696;23.354;2023-06-10T12:13:50;94589.16;;;27.79;37.31
7834;BME280;3962;42.696;23.354;2023-06-10T12:16:18;94590.19;;;27.73;36.86
7834;BME280;3962;42.696;23.354;2023-06-10T12:18:46;94579.72;;;27.50;37.42
7834;BME280;3962;42.696;23.354;2023-06-10T12:21:18;94588.41;;;27.33;37.48
7834;BME280;3962;42.696;23.354;2023-06-10T12:24:03;94587.81;;;27.26;37.91
7834;BME280;3962;42.696;23.354;2023-06-10T12:26:40;94593.72;;;27.08;37.57
7834;BME280;3962;42.696;23.354;2023-06-10T12:29:21;94581.75;;;27.14;37.82
7834;BME280;3962;42.696;23.354;2023-06-10T12:32:10;94583.97;;;27.22;37.32
7834;BME280;3962;42.696;23.354;2023-06-10T12:34:39;94584.41;;;27.04;37.85
7834;BME280;3962;42.696;23.354;2023-06-10T12:37:10;94583.22;;;26.90;38.06
7834;BME280;3962;42.696;23.354;2023-06-10T12:39:39;94569.34;;;27.01;37.96
7834;BME280;3962;42.696;23.354;2023-06-10T12:42:08;94570.66;;;27.35;37.63
7834;BME280;3962;42.696;23.354;2023-06-10T12:44:39;94572.38;;;27.56;37.21
7834;BME280;3962;42.696;23.354;2023-06-10T12:47:11;94562.81;;;27.53;37.32
7834;BME280;3962;42.696;23.354;2023-06-10T12:49:39;94570.13;;;27.38;38.99
7834;BME280;3962;42.696;23.354;2023-06-10T12:52:06;94564.38;;;27.35;38.30
7834;BME280;3962;42.696;23.354;2023-06-10T12:54:34;94567.94;;;27.40;37.65
7834;BME280;3962;42.696;23.354;2023-06-10T12:57:01;94571.25;;;27.42;38.69
7834;BME280;3962;42.696;23.354;2023-06-10T12:59:28;94571.47;;;27.36;39.02
7834;BME280;3962;42.696;23.354;2023-06-10T13:01:55;94571.53;;;26.99;39.81
7834;BME280;3962;42.696;23.354;2023-06-10T13:04:23;94576.16;;;26.94;40.64
7834;BME280;3962;42.696;23.354;2023-06-10T13:06:50;94566.63;;;27.01;39.66
7834;BME280;3962;42.696;23.354;2023-06-10T13:09:17;94573.22;;;27.10;39.35
7834;BME280;3962;42.696;23.354;2023-06-10T13:11:44;94571.88;;;27.13;39.31
7834;BME280;3962;42.696;23.354;2023-06-10T13:14:11;94580.13;;;27.18;38.29
7834;BME280;3962;42.696;23.354;2023-06-10T13:16:38;94579.25;;;27.12;38.10